Time;durP1;ratioP1;P1;durP2;ratioP2;P2;SDS_P1;SDS_P2;PMS_P1;PMS_P2;Temp;Humidity;BMP_temperature;BMP_pressure;BME280_temperature;BME280_humidity;BME280_pressure;Samples;Min_cycle;Max_cycle;Signal;HPM_P1;HPM_P2
2021/01/24 00:01:14;;;;;;;4.80;3.50;;;3.30;95.20;;;;;;5085994;28;20043;-79
2021/01/24 00:03:39;;;;;;;4.28;3.15;;;3.30;95.10;;;;;;5106937;28;20059;-80
2021/01/24 00:06:05;;;;;;;4.20;2.90;;;3.30;95.00;;;;;;5087890;28;20051;-80
2021/01/24 00:08:30;;;;;;;5.25;3.58;;;3.40;95.00;;;;;;5106810;28;20440;-79
2021/01/24 00:10:56;;;;;;;4.70;3.33;;;3.40;94.90;;;;;;5088451;28;20114;-80
2021/01/24 00:13:21;;;;;;;4.55;3.50;;;3.40;94.80;;;;;;5090367;28;20026;-80
2021/01/24 00:15:47;;;;;;;4.57;3.25;;;3.60;94.60;;;;;;5106825;28;20485;-80
2021/01/24 00:18:12;;;;;;;4.47;2.75;;;3.50;94.60;;;;;;5105090;28;20059;-79
2021/01/24 00:20:38;;;;;;;5.40;2.10;;;3.40;94.70;;;;;;5087177;28;20034;-80
2021/01/24 00:23:03;;;;;;;1.98;1.65;;;3.40;94.90;;;;;;5105016;28;20133;-80
2021/01/24 00:25:29;;;;;;;3.25;1.92;;;3.40;94.60;;;;;;5106947;28;20015;-79
2021/01/24 00:27:54;;;;;;;3.50;2.80;;;3.30;94.70;;;;;;5087621;27;20486;-79
2021/01/24 00:30:20;;;;;;;3.28;2.38;;;3.20;94.80;;;;;;5090863;28;20391;-80
2021/01/24 00:32:45;;;;;;;8.20;2.38;;;3.20;94.80;;;;;;5087761;28;20058;-79
2021/01/24 00:35:11;;;;;;;3.05;2.30;;;3.10;94.90;;;;;;5124774;28;20038;-80
2021/01/24 00:37:37;;;;;;;3.05;2.60;;;3.00;95.10;;;;;;5079104;28;20027;-79
2021/01/24 00:40:04;;;;;;;2.72;2.22;;;2.90;95.20;;;;;;5087683;28;20036;-77
2021/01/24 00:42:30;;;;;;;3.78;1.95;;;2.80;95.40;;;;;;5105314;28;20057;-79
2021/01/24 00:44:55;;;;;;;2.80;2.00;;;2.80;95.40;;;;;;5104970;28;20027;-80
2021/01/24 00:47:21;;;;;;;3.58;2.50;;;2.80;95.30;;;;;;5072682;28;20386;-80
2021/01/24 00:49:46;;;;;;;6.82;2.65;;;2.80;95.30;;;;;;5104278;28;20038;-79
2021/01/24 00:52:12;;;;;;;3.60;2.20;;;2.90;95.30;;;;;;5087891;28;20450;-79
2021/01/24 00:54:40;;;;;;;4.43;2.75;;;2.90;95.40;;;;;;5080692;28;20026;-82
2021/01/24 00:57:05;;;;;;;3.13;2.35;;;2.90;95.50;;;;;;5086591;27;20031;-78
2021/01/24 00:59:31;;;;;;;3.05;2.22;;;2.90;95.40;;;;;;5109759;27;20118;-80
2021/01/24 01:01:57;;;;;;;3.70;2.60;;;2.80;95.40;;;;;;5066672;27;20063;-80
2021/01/24 01:04:22;;;;;;;6.63;2.70;;;2.80;95.60;;;;;;5037072;27;20044;-81
2021/01/24 01:06:49;;;;;;;4.65;2.50;;;2.80;95.60;;;;;;5059624;27;20020;-81
2021/01/24 01:09:14;;;;;;;2.65;2.15;;;2.80;95.80;;;;;;5088258;27;20394;-80
2021/01/24 01:11:40;;;;;;;2.80;2.13;;;2.80;95.80;;;;;;5108674;27;20027;-81
2021/01/24 01:14:05;;;;;;;3.10;2.22;;;2.80;95.50;;;;;;5107989;27;20325;-81
2021/01/24 01:16:31;;;;;;;2.60;1.70;;;2.80;95.60;;;;;;5091882;27;20031;-80
2021/01/24 01:18:56;;;;;;;2.15;1.60;;;2.70;95.60;;;;;;5089782;27;20030;-80
2021/01/24 01:21:22;;;;;;;2.90;1.77;;;2.60;95.70;;;;;;5091393;27;20049;-80
2021/01/24 01:23:47;;;;;;;4.40;2.30;;;2.60;95.50;;;;;;5090951;27;20019;-81
2021/01/24 01:26:14;;;;;;;3.92;2.30;;;2.40;95.80;;;;;;5097055;27;20108;-81
2021/01/24 01:28:39;;;;;;;3.78;2.30;;;2.40;95.60;;;;;;5109009;27;20153;-80
2021/01/24 01:31:05;;;;;;;4.70;2.42;;;2.30;95.60;;;;;;5091429;27;20470;-80
2021/01/24 01:33:30;;;;;;;2.88;1.67;;;2.30;95.70;;;;;;5092283;27;20027;-81
2021/01/24 01:35:56;;;;;;;4.35;2.00;;;2.20;95.80;;;;;;5090369;27;20023;-80
2021/01/24 01:38:21;;;;;;;3.55;1.83;;;2.10;95.80;;;;;;5075458;27;20101;-80
2021/01/24 01:40:47;;;;;;;1.98;1.50;;;2.10;95.70;;;;;;5091876;27;20120;-80
2021/01/24 01:43:12;;;;;;;4.07;1.90;;;2.00;95.50;;;;;;5076525;27;20034;-81
2021/01/24 01:45:38;;;;;;;2.47;2.00;;;1.90;95.60;;;;;;5091450;27;20020;-82
2021/01/24 01:48:04;;;;;;;3.03;2.45;;;1.80;95.40;;;;;;5098642;27;20021;-82
2021/01/24 01:50:29;;;;;;;2.83;2.15;;;1.70;95.30;;;;;;5092348;27;20039;-81
2021/01/24 01:53:00;;;;;;;3.72;2.38;;;1.50;95.20;;;;;;5105472;27;20038;-80
2021/01/24 01:55:26;;;;;;;5.95;2.85;;;1.50;95.20;;;;;;5091268;27;20125;-80
2021/01/24 01:57:52;;;;;;;7.22;2.85;;;1.50;95.20;;;;;;5089881;27;20027;-82
2021/01/24 02:00:18;;;;;;;7.32;3.97;;;1.40;95.40;;;;;;5094808;27;20085;-82
2021/01/24 02:02:46;;;;;;;7.82;3.22;;;1.40;95.20;;;;;;5077493;27;20445;-82
2021/01/24 02:05:28;;;;;;;5.47;3.33;;;1.30;95.20;;;;;;5126638;27;20023;-82
2021/01/24 02:08:05;;;;;;;7.97;4.38;;;1.30;95.10;;;;;;5091583;27;20023;-81
2021/01/24 02:10:39;;;;;;;5.95;3.08;;;1.30;95.00;;;;;;5107758;27;20380;-83
2021/01/24 02:13:23;;;;;;;5.20;3.22;;;1.40;95.00;;;;;;5107852;27;20088;-82
2021/01/24 02:15:48;;;;;;;14.77;3.97;;;1.40;95.00;;;;;;5090350;27;20070;-84
2021/01/24 02:18:14;;;;;;;10.00;3.78;;;1.30;94.90;;;;;;5091618;27;20066;-83
2021/01/24 02:20:47;;;;;;;9.50;4.10;;;1.30;95.00;;;;;;5091880;27;20050;-81
2021/01/24 02:23:13;;;;;;;10.40;4.25;;;1.20;95.20;;;;;;5089559;27;20035;-83
2021/01/24 02:25:53;;;;;;;12.40;5.22;;;1.20;95.10;;;;;;5108904;27;20494;-84
2021/01/24 02:28:36;;;;;;;10.90;5.75;;;1.20;95.20;;;;;;5107596;27;20114;-81
2021/01/24 02:31:01;;;;;;;18.48;6.22;;;1.10;95.20;;;;;;5107178;27;20030;-81
2021/01/24 02:33:28;;;;;;;15.60;5.47;;;1.10;95.20;;;;;;5084810;27;20470;-82
2021/01/24 02:35:55;;;;;;;12.10;5.53;;;1.10;95.30;;;;;;5087972;27;20038;-79
2021/01/24 02:38:20;;;;;;;16.45;4.47;;;1.10;95.40;;;;;;5106423;27;20037;-81
2021/01/24 02:40:46;;;;;;;16.38;4.80;;;1.10;95.50;;;;;;5099683;27;20285;-80
2021/01/24 02:43:12;;;;;;;32.60;4.28;;;1.00;95.50;;;;;;5088667;27;20174;-82
2021/01/24 02:45:42;;;;;;;15.45;3.20;;;1.00;95.60;;;;;;5105669;27;20031;-82
2021/01/24 02:48:08;;;;;;;10.23;2.85;;;1.00;95.60;;;;;;5091812;27;20109;-82
2021/01/24 02:50:34;;;;;;;13.85;2.85;;;1.00;95.50;;;;;;5108854;27;20035;-80
2021/01/24 02:53:00;;;;;;;4.53;2.30;;;1.00;95.40;;;;;;5089221;27;20027;-81
2021/01/24 02:55:28;;;;;;;14.13;2.75;;;1.10;95.30;;;;;;5091572;27;20562;-81
2021/01/24 02:57:55;;;;;;;1.92;1.73;;;1.10;95.30;;;;;;5106746;27;20051;-82
2021/01/24 03:00:21;;;;;;;2.47;2.10;;;1.10;95.20;;;;;;5090591;27;20089;-81
2021/01/24 03:02:47;;;;;;;2.95;2.13;;;1.10;95.30;;;;;;5099537;27;20070;-78
2021/01/24 03:05:13;;;;;;;4.07;2.17;;;1.10;95.20;;;;;;5097661;27;20032;-78
2021/01/24 03:07:39;;;;;;;7.00;2.95;;;1.10;95.30;;;;;;5087919;27;20064;-80
2021/01/24 03:10:06;;;;;;;4.53;1.35;;;1.00;95.40;;;;;;5079520;27;20044;-80
2021/01/24 03:12:33;;;;;;;2.42;1.35;;;1.10;95.40;;;;;;5106572;27;20035;-80
2021/01/24 03:14:59;;;;;;;5.70;2.65;;;1.10;95.30;;;;;;5086848;27;20023;-78
2021/01/24 03:17:24;;;;;;;6.50;2.65;;;1.10;95.30;;;;;;5090640;27;20091;-79
2021/01/24 03:19:50;;;;;;;7.00;2.15;;;1.10;95.30;;;;;;5087687;27;20038;-79
2021/01/24 03:22:15;;;;;;;2.63;1.70;;;1.10;95.20;;;;;;5092958;27;20035;-80
2021/01/24 03:24:42;;;;;;;4.10;1.45;;;1.10;95.20;;;;;;5090118;27;20517;-79
2021/01/24 03:27:08;;;;;;;10.32;3.13;;;1.10;95.30;;;;;;5073398;27;20110;-80
2021/01/24 03:29:34;;;;;;;5.30;2.40;;;1.10;95.20;;;;;;5088683;27;20027;-80
2021/01/24 03:31:59;;;;;;;4.30;2.33;;;1.10;95.40;;;;;;5089507;28;20019;-78
2021/01/24 03:34:25;;;;;;;2.92;1.80;;;1.10;95.40;;;;;;5090461;28;20057;-79
2021/01/24 03:36:52;;;;;;;4.88;2.88;;;1.10;95.40;;;;;;5107081;27;20639;-80
2021/01/24 03:39:18;;;;;;;5.95;2.65;;;1.10;95.20;;;;;;5106350;28;20038;-80
2021/01/24 03:41:45;;;;;;;5.50;1.80;;;1.10;95.20;;;;;;5090374;28;20027;-76
2021/01/24 03:44:11;;;;;;;5.43;2.13;;;1.10;95.40;;;;;;5105146;28;20077;-79
2021/01/24 03:46:37;;;;;;;11.75;3.42;;;1.00;95.30;;;;;;5090619;28;20473;-80
2021/01/24 03:49:03;;;;;;;9.77;3.13;;;1.00;95.20;;;;;;5107375;28;20062;-79
2021/01/24 03:51:28;;;;;;;8.57;3.85;;;1.10;95.70;;;;;;5108808;28;20059;-79
2021/01/24 03:53:55;;;;;;;10.15;4.93;;;1.10;95.40;;;;;;5106881;27;20057;-79
2021/01/24 03:56:21;;;;;;;11.55;4.97;;;1.00;95.30;;;;;;5091809;28;20482;-80
2021/01/24 03:58:46;;;;;;;6.05;4.20;;;1.10;95.60;;;;;;5084693;28;20126;-79
2021/01/24 04:01:12;;;;;;;14.27;5.45;;;1.00;95.50;;;;;;5097105;28;20035;-80
2021/01/24 04:03:37;;;;;;;8.63;3.83;;;1.10;95.60;;;;;;5090841;28;20095;-79
2021/01/24 04:06:03;;;;;;;12.82;5.82;;;1.10;95.40;;;;;;5088606;28;20131;-79
2021/01/24 04:08:28;;;;;;;8.93;4.00;;;1.10;95.40;;;;;;5107634;28;20489;-78
2021/01/24 04:10:54;;;;;;;10.48;4.30;;;1.10;95.60;;;;;;5105626;28;20035;-78
2021/01/24 04:13:19;;;;;;;8.75;4.70;;;1.20;95.50;;;;;;5089219;28;20027;-79
2021/01/24 04:15:45;;;;;;;10.02;3.70;;;1.10;95.60;;;;;;5106702;28;20486;-78
2021/01/24 04:18:10;;;;;;;8.95;5.13;;;1.30;95.70;;;;;;5094464;28;20374;-78
2021/01/24 04:20:36;;;;;;;10.25;4.60;;;1.20;95.70;;;;;;5089956;28;20039;-79
2021/01/24 04:23:01;;;;;;;4.78;3.00;;;1.10;95.50;;;;;;5105338;28;20153;-78
2021/01/24 04:25:27;;;;;;;6.15;3.15;;;1.00;95.80;;;;;;5090958;28;20039;-79
2021/01/24 04:27:52;;;;;;;5.47;3.38;;;1.10;95.60;;;;;;5107056;28;20045;-77
2021/01/24 04:30:18;;;;;;;7.35;3.50;;;1.10;95.90;;;;;;5106361;27;20372;-79
2021/01/24 04:32:44;;;;;;;4.57;3.53;;;1.10;95.70;;;;;;5099031;27;20085;-79
2021/01/24 04:35:10;;;;;;;5.20;3.33;;;1.20;95.80;;;;;;5091434;27;20026;-78
2021/01/24 04:37:36;;;;;;;5.88;3.95;;;1.10;95.60;;;;;;5092130;27;20035;-79
2021/01/24 04:40:01;;;;;;;6.93;2.80;;;1.10;96.00;;;;;;5111031;27;20050;-78
2021/01/24 04:42:27;;;;;;;4.72;2.70;;;1.20;95.50;;;;;;5108491;27;20364;-80
2021/01/24 04:44:54;;;;;;;3.78;2.88;;;1.10;95.60;;;;;;5089585;27;20051;-79
2021/01/24 04:47:19;;;;;;;10.82;3.38;;;1.10;95.60;;;;;;5070917;27;20082;-78
2021/01/24 04:49:45;;;;;;;7.18;3.22;;;1.10;95.60;;;;;;5108855;27;20197;-79
2021/01/24 04:52:10;;;;;;;9.48;2.25;;;1.00;95.70;;;;;;5084883;27;20088;-79
2021/01/24 04:54:36;;;;;;;2.65;2.22;;;1.00;95.80;;;;;;5091957;27;20449;-78
2021/01/24 04:57:02;;;;;;;3.40;2.55;;;1.10;96.10;;;;;;5107719;27;20051;-79
2021/01/24 04:59:28;;;;;;;4.10;2.53;;;1.10;95.90;;;;;;5076124;27;20050;-79
2021/01/24 05:01:53;;;;;;;6.80;2.17;;;1.10;95.90;;;;;;5093042;27;20070;-78
2021/01/24 05:04:19;;;;;;;2.10;1.88;;;1.10;95.60;;;;;;5110029;27;20593;-78
2021/01/24 05:06:44;;;;;;;4.47;2.33;;;1.10;95.70;;;;;;5127247;27;20410;-77
2021/01/24 05:09:10;;;;;;;4.40;1.73;;;1.10;95.70;;;;;;5090451;27;20032;-78
2021/01/24 05:11:36;;;;;;;2.88;1.92;;;0.90;95.90;;;;;;5075922;27;20071;-77
2021/01/24 05:14:14;;;;;;;5.13;1.90;;;1.00;96.00;;;;;;5090905;27;20057;-78
2021/01/24 05:16:41;;;;;;;3.30;1.80;;;1.00;96.00;;;;;;5075090;27;20942;-78
2021/01/24 05:19:06;;;;;;;3.17;1.40;;;1.00;95.70;;;;;;5105757;27;21996;-76
2021/01/24 05:21:32;;;;;;;1.20;1.10;;;1.00;96.30;;;;;;5091426;27;20031;-76
2021/01/24 05:23:57;;;;;;;5.03;1.10;;;1.10;96.20;;;;;;5074559;27;20486;-76
2021/01/24 05:26:24;;;;;;;3.60;1.85;;;1.10;96.00;;;;;;5106237;27;20061;-76
2021/01/24 05:28:50;;;;;;;5.53;1.83;;;1.10;95.80;;;;;;5092113;27;20047;-77
2021/01/24 05:31:20;;;;;;;6.18;1.55;;;1.00;95.70;;;;;;5104943;27;20563;-76
2021/01/24 05:33:46;;;;;;;5.07;1.83;;;1.10;95.80;;;;;;5089115;27;21017;-77
2021/01/24 05:36:11;;;;;;;3.42;1.35;;;1.00;95.80;;;;;;5088587;27;20051;-76
2021/01/24 05:38:37;;;;;;;;;;;1.10;96.00;;;;;;4754501;27;9999838;-75
2021/01/24 05:41:10;;;;;;;2.97;1.60;;;1.00;95.70;;;;;;5105828;27;20346;-76
2021/01/24 05:43:40;;;;;;;9.68;1.30;;;1.00;95.80;;;;;;5090071;27;20036;-76
2021/01/24 05:46:06;;;;;;;3.30;1.27;;;1.00;95.90;;;;;;5092113;27;20089;-77
2021/01/24 05:48:34;;;;;;;4.05;1.70;;;1.10;95.80;;;;;;5091528;27;20342;-76
2021/01/24 05:51:06;;;;;;;2.20;1.10;;;1.10;95.90;;;;;;5106965;27;20122;-75
2021/01/24 05:53:43;;;;;;;7.63;0.98;;;1.10;95.80;;;;;;5074538;27;20039;-75
2021/01/24 05:56:09;;;;;;;1.63;1.08;;;1.00;96.10;;;;;;5091940;27;20542;-76
2021/01/24 05:58:35;;;;;;;5.03;1.08;;;1.00;96.20;;;;;;5092399;27;20062;-76
2021/01/24 06:01:00;;;;;;;5.30;0.70;;;1.10;96.10;;;;;;5106658;27;20051;-76
2021/01/24 06:03:26;;;;;;;4.30;1.30;;;1.10;95.80;;;;;;5075605;27;20065;-76
2021/01/24 06:05:51;;;;;;;5.75;0.95;;;1.00;95.90;;;;;;5107816;27;20695;-76
2021/01/24 06:08:17;;;;;;;9.60;1.50;;;1.00;95.90;;;;;;5107588;27;20031;-76
2021/01/24 06:10:43;;;;;;;3.45;0.98;;;1.00;95.90;;;;;;5108880;27;20051;-76
2021/01/24 06:13:11;;;;;;;3.13;1.52;;;1.10;96.10;;;;;;5107742;27;20025;-76
2021/01/24 06:15:37;;;;;;;7.07;1.42;;;1.10;95.90;;;;;;5073221;27;20093;-76
2021/01/24 06:18:04;;;;;;;2.83;1.00;;;1.00;95.90;;;;;;5074550;27;20474;-75
2021/01/24 06:20:33;;;;;;;5.20;1.23;;;0.90;96.30;;;;;;5069837;27;20044;-76
2021/01/24 06:23:09;;;;;;;1.77;1.25;;;0.90;96.10;;;;;;5089747;27;20110;-76
2021/01/24 06:25:37;;;;;;;2.17;1.20;;;0.90;96.30;;;;;;5075675;27;20023;-76
2021/01/24 06:28:08;;;;;;;2.10;1.33;;;1.00;96.30;;;;;;5072537;27;20067;-75
2021/01/24 06:30:34;;;;;;;8.20;1.95;;;1.00;96.10;;;;;;5091718;27;20418;-76
2021/01/24 06:33:12;;;;;;;3.97;2.10;;;1.10;96.00;;;;;;5088300;27;20248;-76
2021/01/24 06:35:49;;;;;;;9.65;3.08;;;1.00;96.00;;;;;;5090528;27;20038;-77
2021/01/24 06:38:37;;;;;;;3.05;2.13;;;0.90;96.00;;;;;;5104609;27;20039;-75
2021/01/24 06:41:04;;;;;;;11.05;3.33;;;1.00;96.00;;;;;;5089982;27;20524;-75
2021/01/24 06:43:43;;;;;;;4.43;2.70;;;1.00;96.00;;;;;;5099850;27;20122;-75
2021/01/24 06:46:29;;;;;;;7.57;2.42;;;1.00;96.20;;;;;;5091212;27;20042;-75
2021/01/24 06:48:55;;;;;;;12.73;3.25;;;1.00;96.20;;;;;;5093095;27;20118;-76
2021/01/24 06:51:39;;;;;;;7.88;3.45;;;1.00;95.90;;;;;;5107413;27;20102;-76
2021/01/24 06:54:14;;;;;;;3.75;2.30;;;1.00;96.10;;;;;;5105873;27;20062;-77
2021/01/24 06:56:43;;;;;;;4.00;2.25;;;1.00;96.20;;;;;;5108710;27;20513;-76
2021/01/24 06:59:09;;;;;;;6.15;3.80;;;0.90;96.20;;;;;;5107070;27;20023;-76
2021/01/24 07:01:36;;;;;;;2.95;1.75;;;0.90;96.30;;;;;;5107668;27;20023;-76
2021/01/24 07:04:23;;;;;;;4.15;2.38;;;0.90;96.20;;;;;;5090074;27;20019;-76
2021/01/24 07:07:01;;;;;;;4.28;2.20;;;1.00;96.10;;;;;;5101486;27;20043;-77
2021/01/24 07:09:27;;;;;;;5.68;3.33;;;1.00;96.30;;;;;;5103950;27;20027;-77
2021/01/24 07:12:02;;;;;;;16.58;4.97;;;1.10;96.30;;;;;;5103799;27;20217;-78
2021/01/24 07:14:36;;;;;;;7.90;4.43;;;0.90;96.10;;;;;;5079535;27;20184;-79
2021/01/24 07:17:06;;;;;;;16.77;6.07;;;1.00;96.40;;;;;;5109108;27;20042;-78
2021/01/24 07:19:33;;;;;;;6.50;3.63;;;0.90;96.10;;;;;;5074409;27;20475;-78
2021/01/24 07:21:58;;;;;;;9.10;5.10;;;0.90;96.20;;;;;;5083013;27;20450;-79
2021/01/24 07:24:25;;;;;;;12.88;5.20;;;1.00;96.30;;;;;;5090490;27;21223;-77
2021/01/24 07:26:52;;;;;;;22.40;10.57;;;1.00;96.30;;;;;;5072583;28;20035;-78
2021/01/24 07:29:17;;;;;;;8.82;4.72;;;1.00;96.00;;;;;;5088320;27;20046;-78
2021/01/24 07:31:43;;;;;;;19.73;8.85;;;0.90;96.40;;;;;;5087154;27;20102;-78
2021/01/24 07:34:09;;;;;;;17.27;7.50;;;1.00;96.10;;;;;;5069020;27;20028;-78
2021/01/24 07:36:34;;;;;;;10.52;5.15;;;0.90;96.10;;;;;;5106096;27;20553;-78
2021/01/24 07:39:00;;;;;;;25.70;12.43;;;1.00;96.30;;;;;;5105775;28;20046;-78
2021/01/24 07:41:26;;;;;;;26.20;11.80;;;1.00;96.20;;;;;;5091071;27;20106;-78
2021/01/24 07:43:51;;;;;;;19.30;11.18;;;1.00;96.10;;;;;;5107351;28;20621;-78
2021/01/24 07:46:23;;;;;;;9.77;5.07;;;1.00;96.00;;;;;;5091174;28;20134;-78
2021/01/24 07:48:49;;;;;;;27.75;14.20;;;1.00;96.30;;;;;;5104536;28;20085;-77
2021/01/24 07:51:17;;;;;;;20.02;10.55;;;1.00;96.10;;;;;;5105613;28;20024;-77
2021/01/24 07:53:49;;;;;;;13.05;6.63;;;1.00;96.10;;;;;;5097352;28;20024;-77
2021/01/24 07:56:14;;;;;;;27.48;14.30;;;1.00;96.10;;;;;;5073288;28;20066;-77
2021/01/24 07:58:40;;;;;;;12.73;6.75;;;0.90;96.20;;;;;;5105526;28;20051;-77
2021/01/24 08:01:05;;;;;;;31.63;12.77;;;1.00;96.30;;;;;;5105286;28;20130;-77
2021/01/24 08:03:33;;;;;;;22.45;10.52;;;1.00;96.20;;;;;;5106183;28;20031;-77
2021/01/24 08:06:13;;;;;;;28.67;13.88;;;1.10;96.30;;;;;;5089995;27;20058;-77
2021/01/24 08:08:39;;;;;;;29.38;13.75;;;1.10;96.00;;;;;;5072942;27;20055;-78
2021/01/24 08:11:05;;;;;;;14.15;8.23;;;1.10;96.30;;;;;;5118310;27;20512;-79
2021/01/24 08:13:30;;;;;;;22.70;11.30;;;1.00;96.10;;;;;;5094568;27;20035;-78
2021/01/24 08:15:56;;;;;;;26.50;14.05;;;1.00;96.20;;;;;;5089984;27;20041;-79
2021/01/24 08:18:22;;;;;;;27.65;13.30;;;1.00;96.20;;;;;;5092078;27;20039;-77
2021/01/24 08:20:47;;;;;;;32.03;15.30;;;1.00;96.30;;;;;;5078990;27;20042;-80
2021/01/24 08:23:14;;;;;;;20.48;10.02;;;1.00;96.20;;;;;;5102982;27;20035;-77
2021/01/24 08:25:39;;;;;;;19.23;9.02;;;1.10;96.20;;;;;;5080688;28;20106;-78
2021/01/24 08:28:05;;;;;;;27.30;13.70;;;1.10;96.30;;;;;;5104571;27;20484;-77
2021/01/24 08:30:35;;;;;;;26.73;11.13;;;1.10;96.10;;;;;;5111462;27;20335;-77
2021/01/24 08:33:03;;;;;;;37.83;16.30;;;1.00;96.20;;;;;;5107985;27;20103;-78
2021/01/24 08:35:31;;;;;;;22.05;10.50;;;1.00;96.20;;;;;;5100056;27;20398;-78
2021/01/24 08:37:56;;;;;;;32.22;15.40;;;1.20;96.20;;;;;;5093448;27;20164;-78
2021/01/24 08:40:35;;;;;;;42.60;19.45;;;1.10;95.90;;;;;;5109932;27;20118;-78
2021/01/24 08:43:01;;;;;;;28.52;12.02;;;1.20;96.00;;;;;;5095872;27;20382;-77
2021/01/24 08:45:28;;;;;;;41.78;16.13;;;1.20;96.20;;;;;;5093399;27;20088;-77
2021/01/24 08:47:55;;;;;;;38.13;15.88;;;1.20;96.00;;;;;;5090949;27;20097;-73
2021/01/24 08:50:20;;;;;;;53.40;22.85;;;1.20;96.00;;;;;;5075779;27;20643;-74
2021/01/24 08:52:59;;;;;;;65.63;28.38;;;1.10;96.00;;;;;;5077625;27;20035;-73
2021/01/24 08:55:24;;;;;;;32.33;15.60;;;1.10;96.00;;;;;;5103041;27;20034;-73
2021/01/24 08:57:50;;;;;;;53.10;19.70;;;1.10;96.20;;;;;;5096471;27;20031;-73
2021/01/24 09:00:16;;;;;;;34.35;14.63;;;1.10;96.20;;;;;;5091576;27;20039;-73
2021/01/24 09:02:42;;;;;;;58.58;25.02;;;1.10;96.30;;;;;;5109258;27;20062;-73
2021/01/24 09:05:13;;;;;;;54.22;21.27;;;1.20;96.10;;;;;;5108886;27;20089;-73
2021/01/24 09:07:45;;;;;;;45.53;19.33;;;1.10;96.10;;;;;;5108662;27;20446;-73
2021/01/24 09:10:20;;;;;;;72.30;27.02;;;1.10;96.20;;;;;;5105020;27;20434;-74
2021/01/24 09:12:47;;;;;;;47.55;19.58;;;1.10;96.10;;;;;;5092671;27;20038;-72
2021/01/24 09:15:13;;;;;;;54.00;20.95;;;1.10;96.10;;;;;;5079157;27;20031;-73
2021/01/24 09:17:38;;;;;;;55.83;21.92;;;1.10;96.30;;;;;;5083642;27;20031;-72
2021/01/24 09:20:04;;;;;;;54.47;23.98;;;1.00;96.10;;;;;;5086790;27;20498;-72
2021/01/24 09:22:30;;;;;;;47.05;19.00;;;1.00;96.20;;;;;;5107513;27;20457;-73
2021/01/24 09:24:56;;;;;;;52.60;19.95;;;1.00;96.30;;;;;;5068551;27;20034;-73
2021/01/24 09:27:21;;;;;;;45.72;18.88;;;1.10;96.20;;;;;;5108624;27;20465;-74
2021/01/24 09:29:47;;;;;;;38.22;15.98;;;1.10;96.30;;;;;;5070870;27;20045;-75
2021/01/24 09:32:12;;;;;;;48.28;21.10;;;1.10;96.40;;;;;;5090559;27;20034;-73
2021/01/24 09:34:38;;;;;;;53.70;22.60;;;1.20;96.00;;;;;;5071908;27;20034;-73
2021/01/24 09:37:03;;;;;;;43.35;15.52;;;1.20;96.60;;;;;;5088788;27;20058;-74
2021/01/24 09:39:29;;;;;;;36.15;15.57;;;1.10;96.30;;;;;;5087895;27;20058;-73
2021/01/24 09:41:55;;;;;;;35.58;15.45;;;1.10;96.40;;;;;;5069701;27;20035;-73
2021/01/24 09:44:20;;;;;;;34.67;14.30;;;1.10;96.60;;;;;;5065516;27;20104;-74
2021/01/24 09:46:46;;;;;;;43.13;15.70;;;1.10;96.50;;;;;;5104979;27;20118;-74
2021/01/24 09:49:11;;;;;;;25.17;9.93;;;1.10;96.50;;;;;;5105619;27;20062;-74
2021/01/24 09:51:37;;;;;;;33.13;14.35;;;1.20;96.40;;;;;;5106032;27;20051;-73
2021/01/24 09:54:03;;;;;;;42.10;18.30;;;1.30;96.50;;;;;;5089480;27;20082;-74
2021/01/24 09:56:28;;;;;;;38.60;16.10;;;1.30;96.30;;;;;;5073839;27;20043;-74
2021/01/24 09:58:54;;;;;;;38.65;14.68;;;1.20;96.30;;;;;;5089675;27;20122;-73
2021/01/24 10:01:20;;;;;;;43.13;16.77;;;1.30;96.30;;;;;;5114489;27;20047;-74
2021/01/24 10:03:46;;;;;;;51.90;18.85;;;1.30;96.00;;;;;;5086259;27;20027;-74
2021/01/24 10:06:12;;;;;;;47.13;20.35;;;1.30;96.30;;;;;;5088579;27;20459;-73
2021/01/24 10:08:37;;;;;;;57.15;21.92;;;1.30;96.00;;;;;;5087792;27;20030;-73
2021/01/24 10:11:03;;;;;;;52.22;20.33;;;1.40;96.40;;;;;;5090179;27;20489;-74
2021/01/24 10:13:28;;;;;;;34.47;15.38;;;1.30;96.20;;;;;;5089287;27;20108;-73
2021/01/24 10:15:54;;;;;;;44.25;20.30;;;1.30;96.40;;;;;;5090645;27;21826;-74
2021/01/24 10:18:20;;;;;;;36.35;17.65;;;1.30;96.10;;;;;;5103937;27;20084;-73
2021/01/24 10:20:45;;;;;;;45.08;19.15;;;1.20;96.00;;;;;;5088614;27;20039;-73
2021/01/24 10:23:11;;;;;;;31.90;14.77;;;1.30;96.10;;;;;;5074220;27;20113;-75
2021/01/24 10:25:37;;;;;;;24.52;12.75;;;1.30;96.40;;;;;;5105116;27;20047;-74
2021/01/24 10:28:03;;;;;;;34.10;15.73;;;1.30;96.40;;;;;;5107858;27;20111;-74
2021/01/24 10:30:28;;;;;;;34.45;15.70;;;1.40;96.30;;;;;;5105380;27;20169;-74
2021/01/24 10:32:54;;;;;;;35.40;17.05;;;1.30;96.40;;;;;;5103636;27;20476;-74
2021/01/24 10:35:19;;;;;;;42.13;23.50;;;1.30;96.00;;;;;;5090528;27;20027;-74
2021/01/24 10:37:45;;;;;;;30.77;15.48;;;1.30;96.10;;;;;;5088557;27;20685;-74
2021/01/24 10:40:11;;;;;;;36.25;16.60;;;1.10;96.30;;;;;;5089629;27;20058;-76
2021/01/24 10:42:38;;;;;;;32.25;17.10;;;1.10;96.50;;;;;;5088280;27;20096;-73
2021/01/24 10:45:08;;;;;;;32.10;16.88;;;1.30;96.50;;;;;;5075012;27;20463;-74
2021/01/24 10:47:33;;;;;;;51.10;22.83;;;1.20;96.20;;;;;;5108014;27;20493;-75
2021/01/24 10:49:59;;;;;;;34.38;17.67;;;1.20;96.20;;;;;;5105439;27;20030;-74
2021/01/24 10:52:25;;;;;;;30.00;14.10;;;1.30;96.50;;;;;;5085328;28;22440;-73
2021/01/24 10:54:50;;;;;;;30.17;13.95;;;1.40;96.50;;;;;;5087597;27;20027;-73
2021/01/24 10:57:16;;;;;;;26.60;13.00;;;1.30;96.20;;;;;;5090386;27;20184;-73
2021/01/24 10:59:41;;;;;;;48.83;17.80;;;1.40;96.50;;;;;;5090268;27;20035;-74
2021/01/24 11:02:07;;;;;;;30.15;14.88;;;1.30;96.00;;;;;;5090577;27;20035;-73
2021/01/24 11:04:33;;;;;;;28.52;16.08;;;1.40;96.40;;;;;;5092049;27;20109;-73
2021/01/24 11:06:58;;;;;;;29.30;15.68;;;1.40;96.10;;;;;;5089487;27;20035;-75
2021/01/24 11:09:24;;;;;;;32.97;16.35;;;1.40;96.30;;;;;;5076450;27;20035;-76
2021/01/24 11:11:50;;;;;;;35.78;17.10;;;1.40;96.30;;;;;;5076012;27;20034;-77
2021/01/24 11:14:16;;;;;;;26.40;14.20;;;1.30;96.20;;;;;;5102757;27;20084;-77
2021/01/24 11:16:41;;;;;;;41.72;17.40;;;1.40;96.50;;;;;;5093486;27;20023;-77
2021/01/24 11:19:07;;;;;;;33.90;15.40;;;1.60;96.50;;;;;;5093315;27;20027;-77
2021/01/24 11:21:32;;;;;;;27.50;14.10;;;1.50;96.10;;;;;;5081150;27;20027;-77
2021/01/24 11:23:58;;;;;;;30.48;12.75;;;1.40;96.40;;;;;;5091562;27;20034;-76
2021/01/24 11:26:24;;;;;;;27.23;14.45;;;1.50;96.20;;;;;;5092706;28;20057;-77
2021/01/24 11:28:49;;;;;;;37.47;16.88;;;1.30;95.80;;;;;;5088250;27;20477;-77
2021/01/24 11:31:15;;;;;;;29.75;14.77;;;1.40;96.60;;;;;;5104989;27;20522;-76
2021/01/24 11:33:40;;;;;;;26.80;13.60;;;1.40;96.20;;;;;;5075006;27;20482;-77
2021/01/24 11:36:06;;;;;;;24.75;11.88;;;1.40;96.10;;;;;;5092112;27;20038;-77
2021/01/24 11:38:31;;;;;;;26.35;14.10;;;1.40;96.40;;;;;;5088448;27;20027;-77
2021/01/24 11:40:57;;;;;;;35.80;15.25;;;1.40;96.40;;;;;;5105286;27;20106;-77
2021/01/24 11:43:22;;;;;;;37.08;14.23;;;1.50;96.60;;;;;;5076899;27;20578;-76
2021/01/24 11:45:48;;;;;;;26.23;12.57;;;1.60;96.40;;;;;;5093049;28;20114;-77
2021/01/24 11:48:13;;;;;;;39.75;17.80;;;1.70;96.50;;;;;;5104199;28;20035;-77
2021/01/24 11:50:39;;;;;;;40.92;17.63;;;1.70;96.40;;;;;;5090223;28;20031;-77
2021/01/24 11:53:04;;;;;;;48.50;19.65;;;1.70;96.30;;;;;;5088975;28;20034;-78
2021/01/24 11:55:30;;;;;;;31.75;13.25;;;1.70;96.50;;;;;;5091967;28;20031;-77
2021/01/24 11:57:55;;;;;;;16.45;6.90;;;1.60;96.60;;;;;;5087513;28;20038;-77
2021/01/24 12:00:21;;;;;;;30.98;16.77;;;1.70;96.40;;;;;;5104838;28;20035;-76
2021/01/24 12:02:47;;;;;;;34.30;16.50;;;1.70;96.30;;;;;;5108466;28;20118;-78
2021/01/24 12:05:12;;;;;;;19.35;7.47;;;1.70;96.60;;;;;;5090380;28;20027;-76
2021/01/24 12:07:38;;;;;;;22.95;9.77;;;1.70;96.70;;;;;;5107893;28;20132;-77
2021/01/24 12:10:04;;;;;;;33.78;14.30;;;1.80;96.60;;;;;;5085534;28;20058;-76
2021/01/24 12:12:29;;;;;;;20.48;7.75;;;1.80;96.60;;;;;;5105235;28;20042;-75
2021/01/24 12:14:55;;;;;;;31.60;15.65;;;1.90;96.60;;;;;;5106570;28;20042;-76
2021/01/24 12:17:26;;;;;;;21.70;10.13;;;1.80;96.50;;;;;;5089041;28;20581;-77
2021/01/24 12:19:52;;;;;;;20.48;8.48;;;1.90;96.70;;;;;;5107194;28;20437;-75
2021/01/24 12:22:17;;;;;;;31.02;16.17;;;2.00;96.60;;;;;;5078295;28;20031;-76
2021/01/24 12:24:43;;;;;;;26.75;13.80;;;2.00;96.40;;;;;;5106329;28;20035;-76
2021/01/24 12:27:09;;;;;;;32.20;15.18;;;1.90;96.50;;;;;;5091536;28;20479;-76
2021/01/24 12:29:34;;;;;;;26.67;12.30;;;1.90;96.50;;;;;;5090851;28;20055;-76
2021/01/24 12:32:00;;;;;;;23.45;10.98;;;1.90;96.70;;;;;;5084938;28;20027;-76
2021/01/24 12:34:25;;;;;;;23.20;12.18;;;2.00;96.70;;;;;;5089976;28;20363;-76
2021/01/24 12:36:51;;;;;;;22.92;11.05;;;2.00;96.70;;;;;;5090626;28;20027;-75
2021/01/24 12:39:16;;;;;;;18.25;9.65;;;2.10;96.60;;;;;;5090258;28;20098;-76
2021/01/24 12:41:42;;;;;;;18.38;10.10;;;2.00;96.40;;;;;;5085102;28;20028;-77
2021/01/24 12:44:07;;;;;;;11.15;5.80;;;2.00;96.60;;;;;;5098481;28;20042;-76
2021/01/24 12:46:33;;;;;;;15.40;7.38;;;2.10;96.60;;;;;;5089305;28;20031;-77